Time;durP1;ratioP1;P1;durP2;ratioP2;P2;SDS_P1;SDS_P2;PMS_P1;PMS_P2;Temp;Humidity;BMP_temperature;BMP_pressure;BME280_temperature;BME280_humidity;BME280_pressure;Samples;Min_cycle;Max_cycle;Signal;HPM_P1;HPM_P2
2022/07/27 00:01:42;;;;;;;1.67;1.23;;;;;;;;;;4977500;28;20215;-62
2022/07/27 00:04:31;;;;;;;2.53;1.03;;;;;;;;;;4979329;28;20659;-62
2022/07/27 00:07:18;;;;;;;2.27;1.13;;;;;;;;;;4983118;28;20227;-63
2022/07/27 00:10:06;;;;;;;1.70;1.20;;;;;;;;;;4978682;28;20698;-62
2022/07/27 00:12:53;;;;;;;2.03;1.07;;;;;;;;;;4983102;28;20215;-62
2022/07/27 00:15:40;;;;;;;2.13;1.17;;;;;;;;;;4981820;28;20230;-62
2022/07/27 00:18:27;;;;;;;1.27;1.17;;;;;;;;;;4980022;28;20219;-62
2022/07/27 00:21:15;;;;;;;2.03;1.37;;;;;;;;;;4983260;28;20684;-62
2022/07/27 00:24:02;;;;;;;1.30;0.80;;;;;;;;;;4981096;28;20247;-62
2022/07/27 00:26:49;;;;;;;1.17;0.93;;;;;;;;;;4977010;28;20383;-62
2022/07/27 00:29:36;;;;;;;2.23;1.20;;;;;;;;;;4983230;28;20212;-62
2022/07/27 00:32:23;;;;;;;2.20;1.10;;;;;;;;;;4979083;28;20215;-62
2022/07/27 00:35:11;;;;;;;1.70;1.10;;;;;;;;;;4981363;28;20288;-62
2022/07/27 00:37:59;;;;;;;1.80;0.73;;;;;;;;;;4982746;28;20209;-62
2022/07/27 00:40:46;;;;;;;1.23;1.13;;;;;;;;;;4984023;28;20221;-62
2022/07/27 00:43:48;;;;;;;1.33;0.90;;;;;;;;;;4980139;28;20736;-62
2022/07/27 00:46:35;;;;;;;3.27;1.30;;;;;;;;;;4979821;28;20232;-62
2022/07/27 00:49:22;;;;;;;1.90;1.10;;;;;;;;;;4981640;28;20672;-62
2022/07/27 00:52:10;;;;;;;1.23;1.07;;;;;;;;;;4978769;28;20246;-62
2022/07/27 00:54:59;;;;;;;1.33;0.90;;;;;;;;;;4977729;28;20214;-62
2022/07/27 00:57:46;;;;;;;1.50;1.10;;;;;;;;;;4982667;28;20212;-62
2022/07/27 01:00:32;;;;;;;2.10;1.07;;;;;;;;;;4978917;28;20213;-57
2022/07/27 01:03:19;;;;;;;1.63;0.90;;;;;;;;;;4988033;28;20199;-58
2022/07/27 01:06:07;;;;;;;1.17;1.03;;;;;;;;;;4983397;28;20325;-58
2022/07/27 01:09:55;;;;;;;1.67;0.90;;;;;;;;;;4987521;28;20783;-58
2022/07/27 01:12:06;;;;;;;1.33;1.00;;;;;;;;;;4987833;28;20270;-58
2022/07/27 01:14:54;;;;;;;1.03;0.70;;;;;;;;;;4984298;28;20212;-58
2022/07/27 01:17:41;;;;;;;2.00;1.30;;;;;;;;;;4985919;28;20212;-58
2022/07/27 01:20:28;;;;;;;2.03;0.93;;;;;;;;;;4985006;28;20375;-58
2022/07/27 01:23:16;;;;;;;1.90;1.10;;;;;;;;;;4985266;28;20226;-58
2022/07/27 01:26:04;;;;;;;1.33;1.23;;;;;;;;;;4985680;28;20223;-58
2022/07/27 01:28:56;;;;;;;0.77;0.77;;;;;;;;;;4984114;28;20346;-58
2022/07/27 01:31:43;;;;;;;1.63;0.97;;;;;;;;;;4983977;28;20327;-59
2022/07/27 01:34:32;;;;;;;1.37;1.03;;;;;;;;;;4987047;28;20224;-57
2022/07/27 01:37:19;;;;;;;2.00;1.00;;;;;;;;;;4985045;28;20199;-58
2022/07/27 01:40:08;;;;;;;1.40;0.93;;;;;;;;;;4985943;28;20239;-57
2022/07/27 01:42:55;;;;;;;1.73;1.10;;;;;;;;;;4982257;28;20203;-58
2022/07/27 01:45:42;;;;;;;2.50;1.10;;;;;;;;;;4983317;28;20240;-58
2022/07/27 01:48:29;;;;;;;1.10;1.00;;;;;;;;;;4987397;28;20224;-58
2022/07/27 01:51:16;;;;;;;1.90;1.10;;;;;;;;;;4984343;28;20211;-58
2022/07/27 01:54:03;;;;;;;1.60;1.03;;;;;;;;;;4986156;28;20707;-58
2022/07/27 01:56:52;;;;;;;1.53;1.10;;;;;;;;;;4987454;28;20205;-58
2022/07/27 01:59:38;;;;;;;1.63;0.90;;;;;;;;;;4986040;28;20711;-58
2022/07/27 02:02:25;;;;;;;1.33;1.00;;;;;;;;;;4986380;28;20305;-58
2022/07/27 02:05:12;;;;;;;1.30;1.00;;;;;;;;;;4986049;28;20231;-58
2022/07/27 02:07:59;;;;;;;1.50;0.83;;;;;;;;;;4985084;28;20297;-57
2022/07/27 02:13:52;;;;;;;1.50;1.20;;;;;;;;;;4990692;28;20253;-58
2022/07/27 02:16:39;;;;;;;1.63;1.20;;;;;;;;;;4985185;28;20218;-59
2022/07/27 02:19:27;;;;;;;1.57;0.90;;;;;;;;;;4981750;28;20274;-58
2022/07/27 02:22:14;;;;;;;1.47;0.73;;;;;;;;;;4977669;28;20221;-58
2022/07/27 02:25:02;;;;;;;2.07;1.20;;;;;;;;;;4979671;28;20207;-58
2022/07/27 02:27:49;;;;;;;2.23;0.90;;;;;;;;;;4986535;28;20257;-58
2022/07/27 02:30:37;;;;;;;1.23;0.80;;;;;;;;;;4978754;28;20359;-58
2022/07/27 02:33:24;;;;;;;1.20;1.10;;;;;;;;;;4982771;28;20213;-59
2022/07/27 02:36:12;;;;;;;2.03;1.00;;;;;;;;;;4983165;28;20227;-58
2022/07/27 02:38:59;;;;;;;1.70;1.13;;;;;;;;;;4984117;28;20202;-58
2022/07/27 02:41:47;;;;;;;1.83;1.30;;;;;;;;;;4985213;28;20689;-58
2022/07/27 02:44:35;;;;;;;1.27;1.17;;;;;;;;;;4984473;28;20214;-58
2022/07/27 02:47:23;;;;;;;2.00;1.30;;;;;;;;;;4981526;28;20225;-58
2022/07/27 02:50:10;;;;;;;1.17;0.90;;;;;;;;;;4982418;28;20221;-58
2022/07/27 02:52:57;;;;;;;1.83;1.23;;;;;;;;;;4983932;28;20205;-59
2022/07/27 02:55:44;;;;;;;1.10;1.00;;;;;;;;;;4981716;28;20212;-58
2022/07/27 02:58:31;;;;;;;1.10;1.00;;;;;;;;;;4982535;28;20243;-58
2022/07/27 03:01:18;;;;;;;1.40;1.00;;;;;;;;;;4982965;28;20212;-59
2022/07/27 03:04:07;;;;;;;1.40;1.10;;;;;;;;;;4986968;28;20275;-58
2022/07/27 03:06:54;;;;;;;2.50;1.30;;;;;;;;;;4984634;28;20753;-59
2022/07/27 03:09:40;;;;;;;2.20;1.40;;;;;;;;;;4980794;28;20209;-58
2022/07/27 03:12:27;;;;;;;1.80;1.30;;;;;;;;;;4984810;28;20686;-58
2022/07/27 03:15:14;;;;;;;2.47;1.03;;;;;;;;;;4982455;28;20209;-58
2022/07/27 03:18:02;;;;;;;2.47;1.30;;;;;;;;;;4985334;28;20237;-58
2022/07/27 03:20:50;;;;;;;1.40;1.13;;;;;;;;;;4986169;28;20682;-57
2022/07/27 03:23:37;;;;;;;1.57;1.20;;;;;;;;;;4982350;28;20245;-58
2022/07/27 03:26:24;;;;;;;2.83;1.20;;;;;;;;;;4987377;28;21057;-58
2022/07/27 03:29:12;;;;;;;1.47;1.07;;;;;;;;;;4983946;28;20213;-58
2022/07/27 03:31:58;;;;;;;2.40;1.10;;;;;;;;;;4978164;28;20221;-58
2022/07/27 03:34:45;;;;;;;1.40;0.80;;;;;;;;;;4983978;28;20442;-58
2022/07/27 03:37:34;;;;;;;1.20;1.00;;;;;;;;;;4978213;28;20665;-58
2022/07/27 03:40:21;;;;;;;1.10;1.00;;;;;;;;;;4979555;28;20217;-58
2022/07/27 03:43:08;;;;;;;2.63;1.27;;;;;;;;;;4983656;28;20291;-58
2022/07/27 03:45:55;;;;;;;1.73;1.20;;;;;;;;;;4984088;28;20299;-58
2022/07/27 03:48:42;;;;;;;1.87;1.17;;;;;;;;;;4981245;28;20233;-58
2022/07/27 03:51:29;;;;;;;1.23;0.90;;;;;;;;;;4980635;28;20214;-59
2022/07/27 03:54:17;;;;;;;1.47;1.07;;;;;;;;;;4982081;28;20212;-58
2022/07/27 03:57:04;;;;;;;1.77;0.93;;;;;;;;;;4981450;28;20606;-59
2022/07/27 03:59:51;;;;;;;1.30;0.90;;;;;;;;;;4980300;28;20292;-59
2022/07/27 04:02:38;;;;;;;1.47;1.07;;;;;;;;;;4983513;28;20678;-59
2022/07/27 04:05:26;;;;;;;1.57;1.20;;;;;;;;;;4984801;28;20237;-59
2022/07/27 04:08:12;;;;;;;1.40;1.00;;;;;;;;;;4978094;28;20723;-58
2022/07/27 04:11:01;;;;;;;1.63;0.90;;;;;;;;;;4981208;28;20208;-59
2022/07/27 04:13:48;;;;;;;2.40;1.20;;;;;;;;;;4985778;28;20669;-58
2022/07/27 04:16:35;;;;;;;1.10;0.90;;;;;;;;;;4982378;28;20209;-58
2022/07/27 04:19:22;;;;;;;2.07;1.20;;;;;;;;;;4980238;28;20667;-58
2022/07/27 04:22:09;;;;;;;1.27;1.17;;;;;;;;;;4983754;28;20213;-58
2022/07/27 04:24:56;;;;;;;1.27;1.17;;;;;;;;;;4979159;28;20239;-58
2022/07/27 04:27:45;;;;;;;1.77;0.90;;;;;;;;;;4980012;28;20328;-58
2022/07/27 04:30:32;;;;;;;1.10;1.00;;;;;;;;;;4980256;28;20209;-58
2022/07/27 04:33:19;;;;;;;4.33;1.30;;;;;;;;;;4984497;28;20202;-59
2022/07/27 04:36:08;;;;;;;1.83;1.23;;;;;;;;;;4983363;28;20224;-58
2022/07/27 04:38:55;;;;;;;1.90;1.13;;;;;;;;;;4986326;28;20210;-58
2022/07/27 04:41:42;;;;;;;1.70;1.00;;;;;;;;;;4982735;28;20211;-59
2022/07/27 04:44:30;;;;;;;2.40;1.20;;;;;;;;;;4985941;28;20221;-58
2022/07/27 04:47:17;;;;;;;1.20;1.00;;;;;;;;;;4980723;28;20229;-59
2022/07/27 04:50:05;;;;;;;1.07;0.90;;;;;;;;;;4986887;28;20215;-59
2022/07/27 04:52:52;;;;;;;2.63;1.33;;;;;;;;;;4987205;28;20207;-58
2022/07/27 04:55:42;;;;;;;1.87;1.13;;;;;;;;;;4984441;28;20226;-58
2022/07/27 04:58:29;;;;;;;1.00;0.90;;;;;;;;;;4986932;28;20722;-58
2022/07/27 05:01:17;;;;;;;1.17;0.83;;;;;;;;;;4986941;28;20294;-58
2022/07/27 05:04:05;;;;;;;1.43;1.00;;;;;;;;;;4983805;28;20711;-58
2022/07/27 05:06:52;;;;;;;1.60;0.87;;;;;;;;;;4983778;28;20238;-58
2022/07/27 05:09:38;;;;;;;1.03;0.83;;;;;;;;;;4983729;28;20206;-58
2022/07/27 05:12:25;;;;;;;1.87;1.00;;;;;;;;;;4983604;28;20265;-58
2022/07/27 05:15:12;;;;;;;1.67;0.80;;;;;;;;;;4986038;28;20217;-58
2022/07/27 05:18:01;;;;;;;1.13;1.00;;;;;;;;;;4985007;28;20283;-58
2022/07/27 05:20:48;;;;;;;1.57;0.90;;;;;;;;;;4978034;28;20676;-58
2022/07/27 05:23:35;;;;;;;1.67;0.70;;;;;;;;;;4984278;28;20240;-58
2022/07/27 05:26:22;;;;;;;2.23;0.97;;;;;;;;;;4981634;28;20209;-58
2022/07/27 05:29:10;;;;;;;2.17;0.90;;;;;;;;;;4984006;28;20231;-58
2022/07/27 05:31:57;;;;;;;1.23;1.10;;;;;;;;;;4986161;28;20211;-58
2022/07/27 05:34:45;;;;;;;2.83;1.03;;;;;;;;;;4986675;28;20688;-58
2022/07/27 05:37:32;;;;;;;1.83;0.80;;;;;;;;;;4984671;28;20217;-58
2022/07/27 05:40:19;;;;;;;2.27;1.23;;;;;;;;;;4986423;28;20209;-59
2022/07/27 05:43:06;;;;;;;1.33;1.17;;;;;;;;;;4984559;28;20298;-58
2022/07/27 05:45:54;;;;;;;1.40;0.87;;;;;;;;;;4983257;28;20212;-58
2022/07/27 05:48:41;;;;;;;2.83;1.53;;;;;;;;;;4987457;28;20237;-58
2022/07/27 05:51:30;;;;;;;0.77;0.70;;;;;;;;;;4981212;28;20301;-58
2022/07/27 05:54:18;;;;;;;1.33;0.93;;;;;;;;;;4984801;28;20226;-58
2022/07/27 05:57:05;;;;;;;1.03;0.90;;;;;;;;;;4979430;28;20201;-58
2022/07/27 05:59:53;;;;;;;1.73;1.10;;;;;;;;;;4983614;28;20670;-58
2022/07/27 06:02:40;;;;;;;2.33;1.00;;;;;;;;;;4982496;28;20212;-58
2022/07/27 06:05:28;;;;;;;1.73;1.13;;;;;;;;;;4984665;28;20303;-58
2022/07/27 06:08:15;;;;;;;1.83;0.80;;;;;;;;;;4985944;28;20235;-58
2022/07/27 06:11:02;;;;;;;2.03;0.50;;;;;;;;;;4982727;28;20322;-58
2022/07/27 06:13:49;;;;;;;1.03;0.87;;;;;;;;;;4984281;28;20284;-58
2022/07/27 06:16:36;;;;;;;1.63;0.80;;;;;;;;;;4985586;28;20811;-58
2022/07/27 06:19:23;;;;;;;2.33;1.20;;;;;;;;;;4982891;28;20209;-59
2022/07/27 06:22:10;;;;;;;2.13;0.93;;;;;;;;;;4985310;28;20557;-58
2022/07/27 06:24:59;;;;;;;0.90;0.80;;;;;;;;;;4988465;28;20215;-58
2022/07/27 06:27:46;;;;;;;1.77;1.17;;;;;;;;;;4985272;28;20248;-58
2022/07/27 06:30:33;;;;;;;1.30;0.83;;;;;;;;;;4979538;28;20213;-58
2022/07/27 06:33:26;;;;;;;1.13;1.00;;;;;;;;;;4984289;28;20613;-58
2022/07/27 06:36:13;;;;;;;1.27;0.90;;;;;;;;;;4983955;28;20238;-58
2022/07/27 06:39:00;;;;;;;0.97;0.80;;;;;;;;;;4982327;28;20203;-58
2022/07/27 06:41:48;;;;;;;1.30;0.80;;;;;;;;;;4981921;28;20215;-58
2022/07/27 06:44:35;;;;;;;2.07;1.23;;;;;;;;;;4986075;28;20234;-58
2022/07/27 06:47:22;;;;;;;1.23;0.90;;;;;;;;;;4983249;28;20737;-58
2022/07/27 06:50:10;;;;;;;1.70;0.93;;;;;;;;;;4985167;28;20224;-59
2022/07/27 06:52:57;;;;;;;1.23;0.83;;;;;;;;;;4979433;28;20265;-58
2022/07/27 06:55:44;;;;;;;1.13;0.70;;;;;;;;;;4987128;28;20219;-58
2022/07/27 06:58:33;;;;;;;0.97;0.90;;;;;;;;;;4985380;28;20208;-58
2022/07/27 07:01:20;;;;;;;1.42;0.70;;;;;;;;;;4980954;28;20205;-58
2022/07/27 07:04:07;;;;;;;0.88;0.77;;;;;;;;;;4979840;28;20268;-58
2022/07/27 07:06:54;;;;;;;1.15;0.82;;;;;;;;;;4978464;28;20241;-58
2022/07/27 07:09:41;;;;;;;1.23;0.60;;;;;;;;;;4985393;28;20241;-58
2022/07/27 07:12:28;;;;;;;0.68;0.63;;;;;;;;;;4980150;28;20209;-58
2022/07/27 07:15:16;;;;;;;1.00;0.93;;;;;;;;;;4982467;28;20210;-58
2022/07/27 07:18:05;;;;;;;1.33;0.93;;;;;;;;;;4983076;28;20207;-59
2022/07/27 07:20:53;;;;;;;1.35;0.77;;;;;;;;;;4981713;28;20566;-56
2022/07/27 07:23:40;;;;;;;1.67;1.08;;;;;;;;;;4983466;28;20241;-57
2022/07/27 07:26:27;;;;;;;0.70;0.52;;;;;;;;;;4981971;28;20213;-57
2022/07/27 07:29:15;;;;;;;0.50;0.50;;;;;;;;;;4986052;28;20608;-57
2022/07/27 07:32:03;;;;;;;0.98;0.80;;;;;;;;;;4981682;28;20678;-57
2022/07/27 07:34:51;;;;;;;1.23;0.90;;;;;;;;;;4977263;28;20206;-58
2022/07/27 07:37:38;;;;;;;1.20;0.90;;;;;;;;;;4982937;28;20210;-58
2022/07/27 07:40:25;;;;;;;0.55;0.52;;;;;;;;;;4983593;28;20198;-59
2022/07/27 07:43:13;;;;;;;0.75;0.60;;;;;;;;;;4986813;28;20662;-58
2022/07/27 07:46:00;;;;;;;1.02;0.93;;;;;;;;;;4977243;28;20203;-57
2022/07/27 07:48:48;;;;;;;0.82;0.60;;;;;;;;;;4983696;28;20705;-57
2022/07/27 07:51:35;;;;;;;0.55;0.55;;;;;;;;;;4978612;28;20515;-57
2022/07/27 07:54:22;;;;;;;0.95;0.63;;;;;;;;;;4982135;28;20218;-58
2022/07/27 07:57:09;;;;;;;0.95;0.50;;;;;;;;;;4981528;28;20628;-56
2022/07/27 07:59:56;;;;;;;1.13;0.60;;;;;;;;;;4983474;28;20204;-55
2022/07/27 08:02:47;;;;;;;0.47;0.43;;;;;;;;;;4977444;28;20268;-55
2022/07/27 08:05:36;;;;;;;1.08;0.65;;;;;;;;;;4983002;28;20324;-56
2022/07/27 08:08:23;;;;;;;0.70;0.55;;;;;;;;;;4977209;28;20218;-56
2022/07/27 08:11:10;;;;;;;0.60;0.60;;;;;;;;;;4982661;28;20206;-55
2022/07/27 08:13:57;;;;;;;0.82;0.75;;;;;;;;;;4981007;28;20207;-55
2022/07/27 08:16:44;;;;;;;0.30;0.30;;;;;;;;;;4987993;28;20260;-58
2022/07/27 08:19:31;;;;;;;0.77;0.77;;;;;;;;;;4988761;28;20297;-58
2022/07/27 08:22:19;;;;;;;0.70;0.63;;;;;;;;;;4983793;28;20210;-59
2022/07/27 08:25:08;;;;;;;0.88;0.70;;;;;;;;;;4987646;28;20213;-59
2022/07/27 08:27:55;;;;;;;0.77;0.60;;;;;;;;;;4989266;28;20206;-57
2022/07/27 08:30:42;;;;;;;1.13;0.45;;;;;;;;;;4988548;28;20201;-58
2022/07/27 08:33:29;;;;;;;1.52;0.40;;;;;;;;;;4985337;28;20210;-57
2022/07/27 08:36:16;;;;;;;0.52;0.52;;;;;;;;;;4984148;28;20270;-57
2022/07/27 08:39:07;;;;;;;0.90;0.30;;;;;;;;;;4983958;28;20256;-57
2022/07/27 08:41:56;;;;;;;0.70;0.65;;;;;;;;;;4989424;28;20214;-58
2022/07/27 08:44:44;;;;;;;0.45;0.45;;;;;;;;;;4991426;28;20217;-57
2022/07/27 08:47:33;;;;;;;1.00;0.40;;;;;;;;;;4983519;28;20710;-58
2022/07/27 08:50:26;;;;;;;0.70;0.70;;;;;;;;;;4983378;28;20349;-58
2022/07/27 08:53:15;;;;;;;0.35;0.30;;;;;;;;;;4986837;28;20209;-58
2022/07/27 08:56:04;;;;;;;0.60;0.60;;;;;;;;;;4989010;28;20213;-58
2022/07/27 08:58:51;;;;;;;0.68;0.63;;;;;;;;;;4987767;28;20621;-58
2022/07/27 09:01:38;;;;;;;0.93;0.52;;;;;;;;;;4987411;28;20670;-58
2022/07/27 09:04:26;;;;;;;0.60;0.50;;;;;;;;;;4986769;28;20208;-57
2022/07/27 09:07:27;;;;;;;0.70;0.70;;;;;;;;;;4985150;28;20213;-57
2022/07/27 09:10:29;;;;;;;0.60;0.60;;;;;;;;;;4986598;28;20360;-58
2022/07/27 09:13:25;;;;;;;1.15;0.45;;;;;;;;;;4984342;28;20204;-58
2022/07/27 09:16:12;;;;;;;0.50;0.50;;;;;;;;;;4985494;28;20237;-58
2022/07/27 09:19:00;;;;;;;0.52;0.52;;;;;;;;;;4986017;28;20252;-57
2022/07/27 09:21:47;;;;;;;0.60;0.60;;;;;;;;;;4983757;28;20597;-58
2022/07/27 09:24:34;;;;;;;0.90;0.40;;;;;;;;;;4984719;28;20234;-58
2022/07/27 09:27:30;;;;;;;0.82;0.50;;;;;;;;;;4985098;28;20200;-57
2022/07/27 09:30:20;;;;;;;0.40;0.40;;;;;;;;;;4979639;28;20225;-57
2022/07/27 09:33:07;;;;;;;0.73;0.52;;;;;;;;;;4980605;28;20211;-58
2022/07/27 09:35:58;;;;;;;0.45;0.45;;;;;;;;;;4985253;28;20686;-58
2022/07/27 09:38:53;;;;;;;0.60;0.60;;;;;;;;;;4988455;28;20215;-57
2022/07/27 09:41:42;;;;;;;0.40;0.40;;;;;;;;;;4984420;28;20682;-57
2022/07/27 09:44:34;;;;;;;0.50;0.40;;;;;;;;;;4985443;28;20198;-57
2022/07/27 09:47:25;;;;;;;1.17;0.40;;;;;;;;;;4984284;28;20206;-58
2022/07/27 09:50:17;;;;;;;0.43;0.43;;;;;;;;;;4987480;28;20236;-58
2022/07/27 09:53:16;;;;;;;0.40;0.40;;;;;;;;;;4984993;28;20573;-58
2022/07/27 09:56:06;;;;;;;0.30;0.30;;;;;;;;;;4984316;28;20293;-58
2022/07/27 09:58:55;;;;;;;0.45;0.43;;;;;;;;;;4987193;28;20590;-57
2022/07/27 10:01:42;;;;;;;0.45;0.45;;;;;;;;;;4984553;28;20221;-58
2022/07/27 10:04:32;;;;;;;0.40;0.40;;;;;;;;;;4984648;28;20203;-57
2022/07/27 10:07:20;;;;;;;0.50;0.50;;;;;;;;;;4982640;28;20288;-58
2022/07/27 10:10:08;;;;;;;0.25;0.25;;;;;;;;;;4990217;28;20233;-57
2022/07/27 10:12:55;;;;;;;0.32;0.20;;;;;;;;;;4987058;28;20748;-61
2022/07/27 10:15:42;;;;;;;0.30;0.30;;;;;;;;;;4987016;28;20554;-61
2022/07/27 10:18:45;;;;;;;0.30;0.30;;;;;;;;;;4987672;28;20293;-63
2022/07/27 10:21:34;;;;;;;0.40;0.40;;;;;;;;;;4992427;28;20212;-61
2022/07/27 10:24:27;;;;;;;0.32;0.20;;;;;;;;;;4988342;28;20235;-61
2022/07/27 10:27:19;;;;;;;0.43;0.30;;;;;;;;;;4985190;28;20306;-61
2022/07/27 10:30:07;;;;;;;0.40;0.40;;;;;;;;;;4987137;28;20234;-61
2022/07/27 10:32:54;;;;;;;0.45;0.45;;;;;;;;;;4980675;28;20681;-61
2022/07/27 10:35:42;;;;;;;0.55;0.40;;;;;;;;;;4981657;28;20806;-61
2022/07/27 10:38:45;;;;;;;0.40;0.30;;;;;;;;;;4982778;28;20288;-61
2022/07/27 10:41:35;;;;;;;0.38;0.30;;;;;;;;;;4981743;28;20266;-61
2022/07/27 10:44:29;;;;;;;0.35;0.32;;;;;;;;;;4980900;28;20210;-64
2022/07/27 10:47:28;;;;;;;0.63;0.40;;;;;;;;;;4980638;28;20228;-61
2022/07/27 10:50:30;;;;;;;0.20;0.20;;;;;;;;;;4980646;28;20267;-61
2022/07/27 10:53:17;;;;;;;0.82;0.30;;;;;;;;;;4984656;28;20206;-61
2022/07/27 10:56:07;;;;;;;0.30;0.30;;;;;;;;;;4980264;28;20202;-61
2022/07/27 10:58:54;;;;;;;0.20;0.20;;;;;;;;;;4981844;28;20215;-61
2022/07/27 11:01:55;;;;;;;0.30;0.30;;;;;;;;;;4982102;28;20229;-61
2022/07/27 11:04:45;;;;;;;0.20;0.20;;;;;;;;;;4980690;28;20239;-61
2022/07/27 11:07:32;;;;;;;0.30;0.30;;;;;;;;;;4980845;28;20328;-61
2022/07/27 11:10:19;;;;;;;0.30;0.30;;;;;;;;;;4979836;28;20262;-62
2022/07/27 11:13:07;;;;;;;1.33;0.20;;;;;;;;;;4982926;28;20761;-61
2022/07/27 11:15:55;;;;;;;0.40;0.40;;;;;;;;;;4989723;28;20214;-62
2022/07/27 11:18:44;;;;;;;0.17;0.17;;;;;;;;;;4982413;28;20223;-61
2022/07/27 11:21:33;;;;;;;0.20;0.20;;;;;;;;;;4983614;28;20207;-61
2022/07/27 11:24:22;;;;;;;0.20;0.20;;;;;;;;;;4983181;28;20265;-61
2022/07/27 11:27:10;;;;;;;0.30;0.17;;;;;;;;;;4982808;28;20352;-61
2022/07/27 11:29:59;;;;;;;0.20;0.20;;;;;;;;;;4986762;28;20712;-62
2022/07/27 11:32:46;;;;;;;0.20;0.20;;;;;;;;;;4985648;28;20289;-61
2022/07/27 11:35:33;;;;;;;0.13;0.13;;;;;;;;;;4983616;28;20215;-61
2022/07/27 11:38:20;;;;;;;0.30;0.30;;;;;;;;;;4982098;28;20261;-61
2022/07/27 11:41:09;;;;;;;0.30;0.30;;;;;;;;;;4981018;28;20626;-61
2022/07/27 11:44:00;;;;;;;0.30;0.15;;;;;;;;;;4984969;28;20279;-61
2022/07/27 11:46:51;;;;;;;0.50;0.22;;;;;;;;;;4982117;28;20215;-61
2022/07/27 11:49:38;;;;;;;0.10;0.10;;;;;;;;;;4984350;28;20688;-61
2022/07/27 11:52:25;;;;;;;0.20;0.20;;;;;;;;;;4982998;28;20242;-61
2022/07/27 11:55:12;;;;;;;0.28;0.20;;;;;;;;;;4983769;28;20204;-61
2022/07/27 11:58:03;;;;;;;0.43;0.30;;;;;;;;;;4982241;28;20213;-61
2022/07/27 12:00:50;;;;;;;0.10;0.10;;;;;;;;;;4983199;28;20228;-61
2022/07/27 12:03:38;;;;;;;0.20;0.20;;;;;;;;;;4986038;28;20217;-61
2022/07/27 12:06:25;;;;;;;0.22;0.20;;;;;;;;;;4985955;28;20742;-61
2022/07/27 12:09:15;;;;;;;0.35;0.28;;;;;;;;;;4981713;28;20205;-61
2022/07/27 12:12:08;;;;;;;0.35;0.35;;;;;;;;;;4977503;28;20659;-60
2022/07/27 12:14:56;;;;;;;0.25;0.25;;;;;;;;;;4985091;28;20216;-62
2022/07/27 12:17:43;;;;;;;0.10;0.10;;;;;;;;;;4985684;28;20210;-61
2022/07/27 12:20:35;;;;;;;0.15;0.15;;;;;;;;;;4980055;28;20220;-61
2022/07/27 12:23:29;;;;;;;0.10;0.10;;;;;;;;;;4981320;28;20252;-61
2022/07/27 12:26:20;;;;;;;0.20;0.20;;;;;;;;;;4980012;28;20212;-61
2022/07/27 12:29:09;;;;;;;0.10;0.10;;;;;;;;;;4980003;28;20210;-61
2022/07/27 12:32:01;;;;;;;0.20;0.10;;;;;;;;;;4981971;28;20268;-61
2022/07/27 12:34:48;;;;;;;0.22;0.10;;;;;;;;;;4977272;28;20220;-61
2022/07/27 12:37:41;;;;;;;0.28;0.10;;;;;;;;;;4985438;28;20343;-61
2022/07/27 12:40:29;;;;;;;0.20;0.20;;;;;;;;;;4984304;28;20678;-61
2022/07/27 12:43:18;;;;;;;0.10;0.10;;;;;;;;;;4986481;28;20209;-61
2022/07/27 12:46:11;;;;;;;0.00;0.00;;;;;;;;;;4982640;28;20308;-61
2022/07/27 12:48:58;;;;;;;0.10;0.10;;;;;;;;;;4984460;28;20212;-61
2022/07/27 12:51:45;;;;;;;0.20;0.20;;;;;;;;;;4982261;28;20229;-61
2022/07/27 12:54:33;;;;;;;0.00;0.00;;;;;;;;;;4982025;28;20214;-61
2022/07/27 12:57:20;;;;;;;0.22;0.10;;;;;;;;;;4982733;28;20210;-61
2022/07/27 13:00:10;;;;;;;0.10;0.10;;;;;;;;;;4983314;28;20205;-61
2022/07/27 13:02:57;;;;;;;0.08;0.03;;;;;;;;;;4987912;28;20214;-61
2022/07/27 13:05:44;;;;;;;0.20;0.20;;;;;;;;;;4991345;28;20240;-61
2022/07/27 13:08:31;;;;;;;0.13;0.13;;;;;;;;;;4991694;28;20217;-61
2022/07/27 13:11:20;;;;;;;0.10;0.10;;;;;;;;;;4989283;28;20231;-61
2022/07/27 13:14:07;;;;;;;0.13;0.13;;;;;;;;;;4992625;28;20217;-61
2022/07/27 13:16:54;;;;;;;0.10;0.10;;;;;;;;;;4987204;28;20736;-61
2022/07/27 13:19:41;;;;;;;0.20;0.20;;;;;;;;;;4984827;28;20559;-61
2022/07/27 13:22:28;;;;;;;0.10;0.10;;;;;;;;;;4988420;28;20260;-61
2022/07/27 13:25:16;;;;;;;0.10;0.10;;;;;;;;;;4990678;28;20693;-61
2022/07/27 13:28:05;;;;;;;0.10;0.10;;;;;;;;;;4991469;28;20643;-61
2022/07/27 13:30:52;;;;;;;0.15;0.15;;;;;;;;;;4988123;28;20226;-61
2022/07/27 13:33:39;;;;;;;0.20;0.20;;;;;;;;;;4987018;28;20228;-61
2022/07/27 13:36:26;;;;;;;0.35;0.30;;;;;;;;;;4989940;28;20208;-61
2022/07/27 13:39:14;;;;;;;0.10;0.10;;;;;;;;;;4989809;28;20263;-62
2022/07/27 13:42:00;;;;;;;0.10;0.10;;;;;;;;;;4990522;28;20680;-62
2022/07/27 13:44:49;;;;;;;0.20;0.20;;;;;;;;;;4989181;28;20217;-61
2022/07/27 13:47:36;;;;;;;0.47;0.30;;;;;;;;;;4989185;28;20686;-61
2022/07/27 13:50:23;;;;;;;0.20;0.20;;;;;;;;;;4989999;28;20233;-61
2022/07/27 13:53:10;;;;;;;0.30;0.30;;;;;;;;;;4987052;28;20205;-61
2022/07/27 13:55:57;;;;;;;0.25;0.25;;;;;;;;;;4988908;28;20208;-61
2022/07/27 13:58:44;;;;;;;0.20;0.20;;;;;;;;;;4989583;28;20623;-61
2022/07/27 14:01:32;;;;;;;0.20;0.20;;;;;;;;;;4986764;28;20481;-61
2022/07/27 14:04:19;;;;;;;0.20;0.20;;;;;;;;;;4987910;28;20345;-61
2022/07/27 14:07:06;;;;;;;0.20;0.20;;;;;;;;;;4987229;28;20233;-61
2022/07/27 14:13:01;;;;;;;0.20;0.20;;;;;;;;;;4982776;28;20207;-61
2022/07/27 14:15:49;;;;;;;0.15;0.15;;;;;;;;;;4986044;28;20257;-61
2022/07/27 14:18:38;;;;;;;0.30;0.30;;;;;;;;;;4984233;28;20594;-61
2022/07/27 14:21:25;;;;;;;0.10;0.10;;;;;;;;;;4986162;28;20205;-61
2022/07/27 14:24:12;;;;;;;0.30;0.30;;;;;;;;;;4983623;28;20238;-61
2022/07/27 14:26:59;;;;;;;0.20;0.20;;;;;;;;;;4982403;28;20240;-61
2022/07/27 14:29:46;;;;;;;0.20;0.20;;;;;;;;;;4984794;28;20209;-66
2022/07/27 14:32:33;;;;;;;0.20;0.20;;;;;;;;;;4980940;28;20225;-61
2022/07/27 14:35:22;;;;;;;0.25;0.25;;;;;;;;;;4983502;28;20216;-61
2022/07/27 14:38:11;;;;;;;0.20;0.20;;;;;;;;;;4983339;28;20742;-61
2022/07/27 14:40:59;;;;;;;0.20;0.20;;;;;;;;;;4984120;28;20230;-61
2022/07/27 14:43:46;;;;;;;0.10;0.10;;;;;;;;;;4981163;28;20288;-61
2022/07/27 14:46:33;;;;;;;1.27;0.30;;;;;;;;;;4983617;28;20213;-61
2022/07/27 14:49:20;;;;;;;0.30;0.30;;;;;;;;;;4987910;28;20258;-61
2022/07/27 14:52:12;;;;;;;0.17;0.17;;;;;;;;;;4983169;28;20227;-61
2022/07/27 14:55:00;;;;;;;0.17;0.17;;;;;;;;;;4982948;28;20685;-61
2022/07/27 14:57:47;;;;;;;0.20;0.20;;;;;;;;;;4985651;28;20571;-61
2022/07/27 15:00:34;;;;;;;0.10;0.10;;;;;;;;;;4982241;28;20202;-61
2022/07/27 15:03:21;;;;;;;0.30;0.30;;;;;;;;;;4982884;28;20314;-61
2022/07/27 15:06:08;;;;;;;0.30;0.30;;;;;;;;;;4985619;28;20457;-61
2022/07/27 15:08:57;;;;;;;0.22;0.22;;;;;;;;;;4981297;28;20567;-61
2022/07/27 15:11:44;;;;;;;0.10;0.10;;;;;;;;;;4982941;28;20366;-61
2022/07/27 15:14:31;;;;;;;0.10;0.10;;;;;;;;;;4982493;28;20233;-61
2022/07/27 15:17:18;;;;;;;0.30;0.30;;;;;;;;;;4982177;28;20293;-61
2022/07/27 15:20:08;;;;;;;0.10;0.10;;;;;;;;;;4985988;28;20229;-62
2022/07/27 15:22:55;;;;;;;0.40;0.40;;;;;;;;;;4981441;28;20234;-61
2022/07/27 15:25:44;;;;;;;0.30;0.30;;;;;;;;;;4985327;28;20217;-62
2022/07/27 15:28:31;;;;;;;0.20;0.20;;;;;;;;;;4987033;28;20229;-61
2022/07/27 15:31:18;;;;;;;0.30;0.30;;;;;;;;;;4986387;28;20234;-61
2022/07/27 15:34:05;;;;;;;0.30;0.30;;;;;;;;;;4984646;28;20272;-61
2022/07/27 15:36:52;;;;;;;0.20;0.20;;;;;;;;;;4989694;28;20858;-61
2022/07/27 15:39:40;;;;;;;0.20;0.20;;;;;;;;;;4982583;28;20252;-61
2022/07/27 15:42:28;;;;;;;0.10;0.10;;;;;;;;;;4981484;28;20264;-62
2022/07/27 15:45:16;;;;;;;0.20;0.20;;;;;;;;;;4980193;28;20228;-61
2022/07/27 15:48:03;;;;;;;0.17;0.17;;;;;;;;;;4984131;28;20590;-62
2022/07/27 15:50:52;;;;;;;0.20;0.20;;;;;;;;;;4982763;28;20217;-61
2022/07/27 15:53:39;;;;;;;0.20;0.20;;;;;;;;;;4989812;28;20215;-61
2022/07/27 15:56:26;;;;;;;0.22;0.22;;;;;;;;;;4981197;28;20205;-61
2022/07/27 15:59:14;;;;;;;0.20;0.20;;;;;;;;;;4980183;28;20207;-61
2022/07/27 16:02:01;;;;;;;0.40;0.40;;;;;;;;;;4983125;28;20204;-62
2022/07/27 16:04:48;;;;;;;0.15;0.15;;;;;;;;;;4979785;28;20299;-60
2022/07/27 16:07:35;;;;;;;0.10;0.10;;;;;;;;;;4983270;28;20307;-62
2022/07/27 16:10:22;;;;;;;0.10;0.10;;;;;;;;;;4976965;28;20799;-61
2022/07/27 16:13:16;;;;;;;0.20;0.20;;;;;;;;;;4984131;28;20293;-61
2022/07/27 16:16:24;;;;;;;0.20;0.20;;;;;;;;;;4983348;28;20334;-62
2022/07/27 16:19:11;;;;;;;0.10;0.10;;;;;;;;;;4986554;28;20216;-61
2022/07/27 16:21:58;;;;;;;0.20;0.20;;;;;;;;;;4978138;28;20698;-61
2022/07/27 16:24:45;;;;;;;0.10;0.10;;;;;;;;;;4982556;28;20752;-62
2022/07/27 16:27:32;;;;;;;0.10;0.10;;;;;;;;;;4981708;28;20217;-61
2022/07/27 16:30:19;;;;;;;0.10;0.10;;;;;;;;;;4982199;28;20229;-61
2022/07/27 16:33:08;;;;;;;0.10;0.10;;;;;;;;;;4985986;28;20209;-62
2022/07/27 16:35:55;;;;;;;0.15;0.15;;;;;;;;;;4983749;28;20287;-62
2022/07/27 16:38:42;;;;;;;0.10;0.10;;;;;;;;;;4988394;28;20209;-61
2022/07/27 16:41:29;;;;;;;0.08;0.08;;;;;;;;;;4981670;28;20444;-62
2022/07/27 16:44:17;;;;;;;0.20;0.20;;;;;;;;;;4985350;28;20581;-61
2022/07/27 16:47:05;;;;;;;0.30;0.30;;;;;;;;;;4978603;28;20945;-61
2022/07/27 16:49:53;;;;;;;0.28;0.28;;;;;;;;;;4979547;28;20360;-61
2022/07/27 16:52:40;;;;;;;0.30;0.28;;;;;;;;;;4985586;28;20335;-62
2022/07/27 16:55:27;;;;;;;0.30;0.30;;;;;;;;;;4982065;28;20212;-61